Main page
METAR-TAF:

METAR-TAF

Airports :

Kimball Municipal Airport (Robert E. Arraj Field)

Kimball, Nebraska, United States

latitude: 41-11N, longitude: 103-40W, elevation: 4923 ft

Current weather observation

The report was made 18 minutes ago, at 13:15 UTC
Wind 8 mph from the North/Northeast
Temperature 54°F
Humidity 94%
Pressure 30.27 in. Hg
Visibility: 10 miles
Overcast at a height of 800 ft

METAR: KIBM 281315Z AUTO 02007KT 10SM OVC008 12/11 A3027 RMK AO2 T01240109

Time: 07:33 (13:33 UTC)


TAF: missing

Weather observations and forecasts of more than 4000 airports (METAR and TAF reports).

The available stations are represented by yellow and red dots on the map.

Hover mouse over dot to see the name of the station.

Then click to see weather observations and forecasts.

To change the map : click on the green buttons with a black cross to zoom in, on the green button with a dash to zoom out, or on the green arrows for adjacent maps.


METAR-TAF: